sensor_id;sensor_type;location;lat;lon;timestamp;pressure;altitude;pressure_sealevel;temperature;humidity
63190;BME280;49286;44.460;26.114;2023-05-01T00:00:32;100353.13;;;10.88;100.00
63190;BME280;49286;44.460;26.114;2023-05-01T00:02:58;100411.72;;;11.13;100.00
63190;BME280;49286;44.460;26.114;2023-05-01T00:05:23;100295.47;;;10.54;100.00
63190;BME280;49286;44.460;26.114;2023-05-01T00:07:48;100396.00;;;10.99;100.00
63190;BME280;49286;44.460;26.114;2023-05-01T00:10:14;100284.13;;;10.26;100.00
63190;BME280;49286;44.460;26.114;2023-05-01T00:12:40;100285.00;;;10.28;100.00
63190;BME280;49286;44.460;26.114;2023-05-01T00:15:06;100414.38;;;11.10;100.00
63190;BME280;49286;44.460;26.114;2023-05-01T00:17:32;100333.06;;;10.61;100.00
63190;BME280;49286;44.460;26.114;2023-05-01T00:19:57;100411.75;;;11.01;100.00
63190;BME280;49286;44.460;26.114;2023-05-01T00:22:23;100423.09;;;11.12;100.00
63190;BME280;49286;44.460;26.114;2023-05-01T00:24:48;100292.88;;;10.40;100.00
63190;BME280;49286;44.460;26.114;2023-05-01T00:27:14;100341.81;;;10.66;100.00
63190;BME280;49286;44.460;26.114;2023-05-01T00:29:40;100297.22;;;10.47;100.00
63190;BME280;49286;44.460;26.114;2023-05-01T00:32:06;100276.25;;;10.24;100.00
63190;BME280;49286;44.460;26.114;2023-05-01T00:34:32;100319.97;;;10.56;100.00
63190;BME280;49286;44.460;26.114;2023-05-01T00:36:57;100265.75;;;10.26;100.00
63190;BME280;49286;44.460;26.114;2023-05-01T00:39:23;100422.19;;;11.24;100.00
63190;BME280;49286;44.460;26.114;2023-05-01T00:41:48;100326.91;;;10.75;100.00
63190;BME280;49286;44.460;26.114;2023-05-01T00:44:14;100320.78;;;10.63;100.00
63190;BME280;49286;44.460;26.114;2023-05-01T00:46:40;100427.47;;;11.16;100.00
63190;BME280;49286;44.460;26.114;2023-05-01T00:49:08;100410.00;;;10.76;100.00
63190;BME280;49286;44.460;26.114;2023-05-01T00:51:34;100337.44;;;10.34;100.00
63190;BME280;49286;44.460;26.114;2023-05-01T00:54:00;100288.50;;;10.31;100.00
63190;BME280;49286;44.460;26.114;2023-05-01T00:56:26;100411.72;;;11.08;100.00
63190;BME280;49286;44.460;26.114;2023-05-01T00:58:52;100417.03;;;10.82;100.00
63190;BME280;49286;44.460;26.114;2023-05-01T01:01:21;100399.53;;;10.73;100.00
63190;BME280;49286;44.460;26.114;2023-05-01T01:03:47;100408.28;;;10.82;100.00
63190;BME280;49286;44.460;26.114;2023-05-01T01:06:20;100382.91;;;10.67;100.00
63190;BME280;49286;44.460;26.114;2023-05-01T01:08:54;100436.25;;;10.98;100.00
63190;BME280;49286;44.460;26.114;2023-05-01T01:12:02;100438.88;;;11.01;100.00
63190;BME280;49286;44.460;26.114;2023-05-01T01:14:57;100444.06;;;11.33;100.00
63190;BME280;49286;44.460;26.114;2023-05-01T01:21:08;100428.31;;;11.26;100.00
63190;BME280;49286;44.460;26.114;2023-05-01T01:29:19;100492.22;;;11.43;100.00
63190;BME280;49286;44.460;26.114;2023-05-01T01:34:27;100466.84;;;11.19;100.00
63190;BME280;49286;44.460;26.114;2023-05-01T01:37:16;100467.75;;;11.19;100.00
63190;BME280;49286;44.460;26.114;2023-05-01T01:40:09;100475.59;;;11.24;100.00
63190;BME280;49286;44.460;26.114;2023-05-01T01:42:39;100465.97;;;11.18;100.00
63190;BME280;49286;44.460;26.114;2023-05-01T01:45:12;100479.97;;;11.25;100.00
63190;BME280;49286;44.460;26.114;2023-05-01T01:47:40;100343.59;;;10.38;100.00
63190;BME280;49286;44.460;26.114;2023-05-01T01:50:07;100359.31;;;10.44;100.00
63190;BME280;49286;44.460;26.114;2023-05-01T01:52:35;100354.06;;;10.48;100.00
63190;BME280;49286;44.460;26.114;2023-05-01T01:55:04;100366.31;;;10.54;100.00
63190;BME280;49286;44.460;26.114;2023-05-01T01:57:32;100452.88;;;11.03;100.00
63190;BME280;49286;44.460;26.114;2023-05-01T01:59:59;100457.22;;;11.12;100.00
63190;BME280;49286;44.460;26.114;2023-05-01T02:02:25;100347.94;;;10.51;100.00
63190;BME280;49286;44.460;26.114;2023-05-01T02:04:51;100319.09;;;10.35;100.00
63190;BME280;49286;44.460;26.114;2023-05-01T02:07:18;100445.00;;;11.06;100.00
63190;BME280;49286;44.460;26.114;2023-05-01T02:09:45;100448.47;;;11.13;100.00
63190;BME280;49286;44.460;26.114;2023-05-01T02:12:13;100440.59;;;11.13;100.00
63190;BME280;49286;44.460;26.114;2023-05-01T02:14:41;100445.00;;;11.08;100.00
63190;BME280;49286;44.460;26.114;2023-05-01T02:17:08;100433.59;;;11.09;100.00
63190;BME280;49286;44.460;26.114;2023-05-01T02:19:37;100368.94;;;10.63;100.00
63190;BME280;49286;44.460;26.114;2023-05-01T02:22:06;100407.38;;;10.96;100.00
63190;BME280;49286;44.460;26.114;2023-05-01T02:24:33;100329.59;;;10.39;100.00
63190;BME280;49286;44.460;26.114;2023-05-01T02:27:07;100354.91;;;10.53;100.00
63190;BME280;49286;44.460;26.114;2023-05-01T02:29:35;100486.09;;;11.36;100.00
63190;BME280;49286;44.460;26.114;2023-05-01T02:32:01;100495.72;;;11.39;100.00
63190;BME280;49286;44.460;26.114;2023-05-01T02:34:26;100479.94;;;11.28;100.00
63190;BME280;49286;44.460;26.114;2023-05-01T02:36:52;100451.06;;;11.30;100.00
63190;BME280;49286;44.460;26.114;2023-05-01T02:39:17;100437.91;;;11.39;100.00
63190;BME280;49286;44.460;26.114;2023-05-01T02:41:43;100465.88;;;11.66;100.00
63190;BME280;49286;44.460;26.114;2023-05-01T02:44:10;100476.31;;;11.77;100.00
63190;BME280;49286;44.460;26.114;2023-05-01T02:46:37;100359.22;;;11.08;100.00
63190;BME280;49286;44.460;26.114;2023-05-01T02:49:07;100465.84;;;11.75;100.00
63190;BME280;49286;44.460;26.114;2023-05-01T02:51:34;100419.50;;;11.45;100.00
63190;BME280;49286;44.460;26.114;2023-05-01T02:54:01;100255.22;;;10.53;100.00
63190;BME280;49286;44.460;26.114;2023-05-01T02:56:27;100464.91;;;11.79;100.00
63190;BME280;49286;44.460;26.114;2023-05-01T02:58:54;100457.91;;;11.83;100.00
63190;BME280;49286;44.460;26.114;2023-05-01T03:01:20;100468.47;;;11.71;100.00
63190;BME280;49286;44.460;26.114;2023-05-01T03:03:45;100383.66;;;11.23;100.00
63190;BME280;49286;44.460;26.114;2023-05-01T03:06:11;100305.00;;;10.92;100.00
63190;BME280;49286;44.460;26.114;2023-05-01T03:08:39;100445.69;;;11.68;100.00
63190;BME280;49286;44.460;26.114;2023-05-01T03:11:07;100223.78;;;10.41;100.00
63190;BME280;49286;44.460;26.114;2023-05-01T03:13:34;100344.34;;;11.04;100.00
63190;BME280;49286;44.460;26.114;2023-05-01T03:16:00;100474.53;;;11.82;100.00
63190;BME280;49286;44.460;26.114;2023-05-01T03:18:25;100350.47;;;11.06;100.00
63190;BME280;49286;44.460;26.114;2023-05-01T03:20:51;100471.94;;;11.73;100.00
63190;BME280;49286;44.460;26.114;2023-05-01T03:23:23;100478.06;;;11.79;100.00
63190;BME280;49286;44.460;26.114;2023-05-01T03:25:49;100397.66;;;11.32;100.00
63190;BME280;49286;44.460;26.114;2023-05-01T03:28:14;100468.44;;;11.78;100.00
63190;BME280;49286;44.460;26.114;2023-05-01T03:30:41;100347.84;;;10.95;100.00
63190;BME280;49286;44.460;26.114;2023-05-01T03:33:06;100500.84;;;11.77;100.00
63190;BME280;49286;44.460;26.114;2023-05-01T03:35:32;100398.59;;;11.04;100.00
63190;BME280;49286;44.460;26.114;2023-05-01T03:37:59;100438.00;;;11.04;100.00
63190;BME280;49286;44.460;26.114;2023-05-01T03:40:25;100514.09;;;11.50;100.00
63190;BME280;49286;44.460;26.114;2023-05-01T03:42:50;100507.94;;;11.49;100.00
63190;BME280;49286;44.460;26.114;2023-05-01T03:45:16;100522.00;;;11.34;100.00
63190;BME280;49286;44.460;26.114;2023-05-01T03:47:41;100497.44;;;11.35;100.00
63190;BME280;49286;44.460;26.114;2023-05-01T03:50:07;100299.84;;;9.90;100.00
63190;BME280;49286;44.460;26.114;2023-05-01T03:52:33;100521.16;;;11.08;100.00
63190;BME280;49286;44.460;26.114;2023-05-01T03:54:58;100399.53;;;10.35;100.00
63190;BME280;49286;44.460;26.114;2023-05-01T03:57:24;100351.41;;;10.10;100.00
63190;BME280;49286;44.460;26.114;2023-05-01T03:59:51;100464.28;;;10.77;100.00
63190;BME280;49286;44.460;26.114;2023-05-01T04:02:17;100376.75;;;10.25;100.00
63190;BME280;49286;44.460;26.114;2023-05-01T04:04:42;100391.66;;;10.32;100.00
63190;BME280;49286;44.460;26.114;2023-05-01T04:07:08;100405.63;;;10.34;100.00
63190;BME280;49286;44.460;26.114;2023-05-01T04:09:34;100525.53;;;10.96;100.00
63190;BME280;49286;44.460;26.114;2023-05-01T04:11:59;100503.63;;;10.68;100.00
63190;BME280;49286;44.460;26.114;2023-05-01T04:14:26;100549.16;;;10.92;100.00
63190;BME280;49286;44.460;26.114;2023-05-01T04:16:52;100534.28;;;10.89;100.00
63190;BME280;49286;44.460;26.114;2023-05-01T04:19:17;100406.50;;;10.30;100.00
63190;BME280;49286;44.460;26.114;2023-05-01T04:21:43;100437.13;;;10.45;100.00
63190;BME280;49286;44.460;26.114;2023-05-01T04:24:08;100533.38;;;10.87;100.00
63190;BME280;49286;44.460;26.114;2023-05-01T04:26:34;100360.09;;;9.77;100.00
63190;BME280;49286;44.460;26.114;2023-05-01T04:28:59;100440.56;;;10.18;100.00
63190;BME280;49286;44.460;26.114;2023-05-01T04:31:25;100443.19;;;10.16;100.00
63190;BME280;49286;44.460;26.114;2023-05-01T04:33:51;100564.00;;;10.81;100.00
63190;BME280;49286;44.460;26.114;2023-05-01T04:36:17;100621.78;;;10.91;100.00
63190;BME280;49286;44.460;26.114;2023-05-01T04:38:43;100604.22;;;10.67;100.00
63190;BME280;49286;44.460;26.114;2023-05-01T04:41:08;100552.53;;;10.35;100.00
63190;BME280;49286;44.460;26.114;2023-05-01T04:43:34;100627.03;;;10.90;100.00
63190;BME280;49286;44.460;26.114;2023-05-01T04:45:59;100624.41;;;10.93;100.00
63190;BME280;49286;44.460;26.114;2023-05-01T04:48:25;100631.44;;;11.28;100.00
63190;BME280;49286;44.460;26.114;2023-05-01T04:50:50;100532.50;;;10.61;100.00
63190;BME280;49286;44.460;26.114;2023-05-01T04:53:16;100560.50;;;10.78;100.00
63190;BME280;49286;44.460;26.114;2023-05-01T04:55:42;100682.28;;;11.59;100.00
63190;BME280;49286;44.460;26.114;2023-05-01T04:58:07;100541.28;;;10.89;100.00
63190;BME280;49286;44.460;26.114;2023-05-01T05:00:33;100631.44;;;11.55;100.00
63190;BME280;49286;44.460;26.114;2023-05-01T05:02:58;100706.78;;;12.12;100.00
63190;BME280;49286;44.460;26.114;2023-05-01T05:05:24;100582.38;;;11.51;100.00
63190;BME280;49286;44.460;26.114;2023-05-01T05:07:50;100722.53;;;12.33;100.00
63190;BME280;49286;44.460;26.114;2023-05-01T05:10:15;100707.63;;;12.34;100.00
63190;BME280;49286;44.460;26.114;2023-05-01T05:12:40;100761.09;;;12.60;100.00
63190;BME280;49286;44.460;26.114;2023-05-01T05:15:06;100703.22;;;12.43;100.00
63190;BME280;49286;44.460;26.114;2023-05-01T05:17:32;100660.28;;;12.26;100.00
63190;BME280;49286;44.460;26.114;2023-05-01T05:19:57;100671.44;;;12.88;100.00
63190;BME280;49286;44.460;26.114;2023-05-01T05:22:23;100798.72;;;14.35;100.00
63190;BME280;49286;44.460;26.114;2023-05-01T05:24:56;100802.03;;;14.62;100.00
63190;BME280;49286;44.460;26.114;2023-05-01T05:27:28;100802.16;;;15.89;100.00
63190;BME280;49286;44.460;26.114;2023-05-01T05:29:53;100835.66;;;15.91;100.00
63190;BME280;49286;44.460;26.114;2023-05-01T05:32:19;100836.38;;;16.55;100.00
63190;BME280;49286;44.460;26.114;2023-05-01T05:34:44;100723.25;;;16.59;100.00
63190;BME280;49286;44.460;26.114;2023-05-01T05:37:11;100838.16;;;17.87;100.00
63190;BME280;49286;44.460;26.114;2023-05-01T05:39:37;100691.72;;;15.98;100.00
63190;BME280;49286;44.460;26.114;2023-05-01T05:42:02;100773.50;;;17.08;100.00
63190;BME280;49286;44.460;26.114;2023-05-01T05:44:28;100838.03;;;17.09;100.00
63190;BME280;49286;44.460;26.114;2023-05-01T05:46:53;100824.53;;;17.21;100.00
63190;BME280;49286;44.460;26.114;2023-05-01T05:49:18;100848.50;;;18.35;98.94
63190;BME280;49286;44.460;26.114;2023-05-01T05:51:45;100830.25;;;17.43;100.00
63190;BME280;49286;44.460;26.114;2023-05-01T05:54:11;100775.16;;;18.28;96.11
63190;BME280;49286;44.460;26.114;2023-05-01T05:56:36;100823.34;;;19.15;90.13
63190;BME280;49286;44.460;26.114;2023-05-01T05:59:02;100859.28;;;19.60;84.62
63190;BME280;49286;44.460;26.114;2023-05-01T06:01:27;100861.03;;;18.98;82.62
63190;BME280;49286;44.460;26.114;2023-05-01T06:03:53;100848.63;;;19.30;78.36
63190;BME280;49286;44.460;26.114;2023-05-01T06:06:18;100857.50;;;17.92;84.59
63190;BME280;49286;44.460;26.114;2023-05-01T06:08:44;100748.28;;;19.04;84.22
63190;BME280;49286;44.460;26.114;2023-05-01T06:11:12;100754.72;;;18.97;77.69
63190;BME280;49286;44.460;26.114;2023-05-01T06:13:37;100869.47;;;19.46;74.79
63190;BME280;49286;44.460;26.114;2023-05-01T06:16:03;100870.28;;;20.07;76.43
63190;BME280;49286;44.460;26.114;2023-05-01T06:18:28;100855.97;;;20.10;76.38
63190;BME280;49286;44.460;26.114;2023-05-01T06:20:54;100860.72;;;18.42;76.69
63190;BME280;49286;44.460;26.114;2023-05-01T06:23:20;100770.97;;;17.83;83.09
63190;BME280;49286;44.460;26.114;2023-05-01T06:25:45;100881.69;;;19.82;83.37
63190;BME280;49286;44.460;26.114;2023-05-01T06:28:13;100737.81;;;19.56;88.02
63190;BME280;49286;44.460;26.114;2023-05-01T06:30:38;100871.28;;;20.58;84.40
63190;BME280;49286;44.460;26.114;2023-05-01T06:33:03;100855.50;;;20.50;76.45
63190;BME280;49286;44.460;26.114;2023-05-01T06:35:29;100884.44;;;20.62;76.58
63190;BME280;49286;44.460;26.114;2023-05-01T06:37:55;100876.81;;;20.52;79.73
63190;BME280;49286;44.460;26.114;2023-05-01T06:40:20;100787.72;;;19.49;75.66
63190;BME280;49286;44.460;26.114;2023-05-01T06:42:46;100881.72;;;20.37;79.04
63190;BME280;49286;44.460;26.114;2023-05-01T06:45:11;100765.31;;;19.85;79.45
63190;BME280;49286;44.460;26.114;2023-05-01T06:47:37;100864.28;;;19.10;87.13
63190;BME280;49286;44.460;26.114;2023-05-01T06:50:03;100892.81;;;19.66;84.97
63190;BME280;49286;44.460;26.114;2023-05-01T06:52:29;100801.72;;;19.26;88.14
63190;BME280;49286;44.460;26.114;2023-05-01T06:54:54;100866.81;;;19.46;87.82
63190;BME280;49286;44.460;26.114;2023-05-01T06:57:20;100890.56;;;19.52;84.79
63190;BME280;49286;44.460;26.114;2023-05-01T06:59:45;100877.91;;;19.29;81.63
63190;BME280;49286;44.460;26.114;2023-05-01T07:02:10;100798.75;;;18.06;83.01
63190;BME280;49286;44.460;26.114;2023-05-01T07:04:36;100800.94;;;17.88;85.48
63190;BME280;49286;44.460;26.114;2023-05-01T07:07:02;100778.00;;;18.22;87.94
63190;BME280;49286;44.460;26.114;2023-05-01T07:09:27;100801.84;;;18.23;87.93
63190;BME280;49286;44.460;26.114;2023-05-01T07:11:53;100827.91;;;18.07;83.87
63190;BME280;49286;44.460;26.114;2023-05-01T07:14:21;100802.31;;;17.25;85.91
63190;BME280;49286;44.460;26.114;2023-05-01T07:16:47;100792.41;;;17.35;83.67
63190;BME280;49286;44.460;26.114;2023-05-01T07:19:12;100933.41;;;17.59;83.88
63190;BME280;49286;44.460;26.114;2023-05-01T07:21:39;100929.06;;;17.56;83.53
63190;BME280;49286;44.460;26.114;2023-05-01T07:24:05;100921.06;;;17.11;89.33
63190;BME280;49286;44.460;26.114;2023-05-01T07:26:30;100916.31;;;17.72;84.50
63190;BME280;49286;44.460;26.114;2023-05-01T07:28:56;100861.88;;;17.11;86.09
63190;BME280;49286;44.460;26.114;2023-05-01T07:31:22;100907.41;;;17.33;83.51
63190;BME280;49286;44.460;26.114;2023-05-01T07:33:47;100796.56;;;16.58;82.69
63190;BME280;49286;44.460;26.114;2023-05-01T07:36:13;100937.03;;;17.09;87.09
63190;BME280;49286;44.460;26.114;2023-05-01T07:38:39;100762.00;;;16.18;86.37
63190;BME280;49286;44.460;26.114;2023-05-01T07:41:05;100937.19;;;17.47;84.99
63190;BME280;49286;44.460;26.114;2023-05-01T07:43:30;100832.38;;;16.82;87.38
63190;BME280;49286;44.460;26.114;2023-05-01T07:46:00;100957.78;;;17.34;88.54
63190;BME280;49286;44.460;26.114;2023-05-01T07:48:26;100826.72;;;17.01;89.88
63190;BME280;49286;44.460;26.114;2023-05-01T07:50:53;100936.34;;;17.88;86.15
63190;BME280;49286;44.460;26.114;2023-05-01T07:53:20;100824.16;;;17.38;86.20
63190;BME280;49286;44.460;26.114;2023-05-01T07:55:48;100970.13;;;18.22;84.05
63190;BME280;49286;44.460;26.114;2023-05-01T07:58:14;100889.94;;;17.64;84.90
63190;BME280;49286;44.460;26.114;2023-05-01T08:00:41;100951.22;;;17.97;86.96
63190;BME280;49286;44.460;26.114;2023-05-01T08:03:09;100883.97;;;17.53;89.18
63190;BME280;49286;44.460;26.114;2023-05-01T08:05:34;100964.25;;;18.08;84.25
63190;BME280;49286;44.460;26.114;2023-05-01T08:08:00;100939.06;;;17.85;84.73
63190;BME280;49286;44.460;26.114;2023-05-01T08:10:25;100942.44;;;17.93;86.07
63190;BME280;49286;44.460;26.114;2023-05-01T08:12:52;100947.38;;;18.10;86.51
63190;BME280;49286;44.460;26.114;2023-05-01T08:15:18;100859.66;;;17.33;83.85
63190;BME280;49286;44.460;26.114;2023-05-01T08:17:45;100927.94;;;18.08;84.50
63190;BME280;49286;44.460;26.114;2023-05-01T08:20:11;100874.03;;;17.63;85.51
63190;BME280;49286;44.460;26.114;2023-05-01T08:22:37;100881.13;;;18.04;82.56
63190;BME280;49286;44.460;26.114;2023-05-01T08:25:03;100940.44;;;17.16;95.98
63190;BME280;49286;44.460;26.114;2023-05-01T08:27:29;100821.13;;;16.66;98.59
63190;BME280;49286;44.460;26.114;2023-05-01T08:29:54;100873.13;;;17.23;96.23
63190;BME280;49286;44.460;26.114;2023-05-01T08:32:20;100988.03;;;18.51;90.81
63190;BME280;49286;44.460;26.114;2023-05-01T08:34:45;100927.06;;;18.08;83.53
63190;BME280;49286;44.460;26.114;2023-05-01T08:37:11;100976.38;;;17.78;86.15
63190;BME280;49286;44.460;26.114;2023-05-01T08:39:37;100874.56;;;17.80;86.56
63190;BME280;49286;44.460;26.114;2023-05-01T08:42:02;100903.09;;;18.11;84.13
63190;BME280;49286;44.460;26.114;2023-05-01T08:44:29;100961.84;;;19.08;80.35
63190;BME280;49286;44.460;26.114;2023-05-01T08:49:32;100986.44;;;18.83;79.50
63190;BME280;49286;44.460;26.114;2023-05-01T08:52:01;100903.88;;;19.21;78.84
63190;BME280;49286;44.460;26.114;2023-05-01T08:54:30;100859.53;;;18.88;76.63
63190;BME280;49286;44.460;26.114;2023-05-01T08:57:01;100962.53;;;19.80;68.99
63190;BME280;49286;44.460;26.114;2023-05-01T08:59:33;100885.44;;;19.75;66.57
63190;BME280;49286;44.460;26.114;2023-05-01T09:02:00;101001.84;;;19.39;72.66
63190;BME280;49286;44.460;26.114;2023-05-01T09:04:31;100989.28;;;19.77;66.77
63190;BME280;49286;44.460;26.114;2023-05-01T09:06:58;100975.16;;;19.73;75.33
63190;BME280;49286;44.460;26.114;2023-05-01T09:09:27;100971.53;;;20.35;65.21
63190;BME280;49286;44.460;26.114;2023-05-01T09:11:55;100882.03;;;20.00;60.71
63190;BME280;49286;44.460;26.114;2023-05-01T09:14:25;100972.97;;;20.45;67.05
63190;BME280;49286;44.460;26.114;2023-05-01T09:16:51;100980.97;;;19.55;73.37
63190;BME280;49286;44.460;26.114;2023-05-01T09:19:17;100958.94;;;20.69;69.14
63190;BME280;49286;44.460;26.114;2023-05-01T09:21:43;100986.19;;;19.27;61.27
63190;BME280;49286;44.460;26.114;2023-05-01T09:24:09;100958.53;;;20.24;60.52
63190;BME280;49286;44.460;26.114;2023-05-01T09:26:38;100966.47;;;21.34;58.79
63190;BME280;49286;44.460;26.114;2023-05-01T09:29:04;100873.97;;;21.08;58.82
63190;BME280;49286;44.460;26.114;2023-05-01T09:31:30;100958.50;;;22.05;56.16
63190;BME280;49286;44.460;26.114;2023-05-01T09:36:24;100905.22;;;22.00;52.70
63190;BME280;49286;44.460;26.114;2023-05-01T09:38:49;100871.94;;;21.87;56.05
63190;BME280;49286;44.460;26.114;2023-05-01T09:41:15;100963.84;;;23.35;55.55
63190;BME280;49286;44.460;26.114;2023-05-01T09:43:51;100890.22;;;23.25;50.85
63190;BME280;49286;44.460;26.114;2023-05-01T09:46:19;100861.81;;;22.39;52.15
63190;BME280;49286;44.460;26.114;2023-05-01T09:48:59;100947.09;;;23.51;51.07
63190;BME280;49286;44.460;26.114;2023-05-01T09:51:27;100950.13;;;22.60;48.63
63190;BME280;49286;44.460;26.114;2023-05-01T09:53:57;100947.09;;;23.51;46.71
63190;BME280;49286;44.460;26.114;2023-05-01T09:56:27;100980.09;;;22.46;46.53
63190;BME280;49286;44.460;26.114;2023-05-01T09:58:55;100951.44;;;22.04;48.57
63190;BME280;49286;44.460;26.114;2023-05-01T10:01:40;100931.38;;;23.62;48.97
63190;BME280;49286;44.460;26.114;2023-05-01T10:04:07;100964.34;;;22.60;48.90
63190;BME280;49286;44.460;26.114;2023-05-01T10:06:37;100955.06;;;23.92;47.53
63190;BME280;49286;44.460;26.114;2023-05-01T10:09:04;100932.16;;;23.45;47.36
63190;BME280;49286;44.460;26.114;2023-05-01T10:11:51;100976.22;;;22.07;47.41
63190;BME280;49286;44.460;26.114;2023-05-01T10:14:18;100958.47;;;22.94;48.84
63190;BME280;49286;44.460;26.114;2023-05-01T10:16:44;100867.97;;;23.63;47.78
63190;BME280;49286;44.460;26.114;2023-05-01T10:19:12;100966.31;;;23.20;46.87
63190;BME280;49286;44.460;26.114;2023-05-01T10:21:39;100959.44;;;23.34;49.13
63190;BME280;49286;44.460;26.114;2023-05-01T10:24:05;100909.09;;;22.59;46.14
63190;BME280;49286;44.460;26.114;2023-05-01T10:26:32;100974.53;;;21.07;47.78
63190;BME280;49286;44.460;26.114;2023-05-01T10:28:59;100951.63;;;20.74;49.72
63190;BME280;49286;44.460;26.114;2023-05-01T10:31:26;100977.53;;;21.74;46.78
63190;BME280;49286;44.460;26.114;2023-05-01T10:33:53;100915.63;;;21.84;51.14
63190;BME280;49286;44.460;26.114;2023-05-01T10:36:29;100873.47;;;21.47;46.67
63190;BME280;49286;44.460;26.114;2023-05-01T10:38:57;100874.44;;;21.44;46.33
63190;BME280;49286;44.460;26.114;2023-05-01T10:42:02;100955.72;;;23.97;45.53
63190;BME280;49286;44.460;26.114;2023-05-01T10:44:28;100958.38;;;23.57;43.89
63190;BME280;49286;44.460;26.114;2023-05-01T10:46:54;100855.03;;;22.52;42.37
63190;BME280;49286;44.460;26.114;2023-05-01T10:49:19;100938.13;;;22.90;44.68
63190;BME280;49286;44.460;26.114;2023-05-01T10:51:58;100956.38;;;24.21;43.67
63190;BME280;49286;44.460;26.114;2023-05-01T10:54:30;100838.91;;;21.88;44.17
63190;BME280;49286;44.460;26.114;2023-05-01T10:56:58;100947.34;;;22.83;45.58
63190;BME280;49286;44.460;26.114;2023-05-01T10:59:24;100862.03;;;21.43;45.64
63190;BME280;49286;44.460;26.114;2023-05-01T11:01:50;100870.00;;;21.20;45.96
63190;BME280;49286;44.460;26.114;2023-05-01T11:12:12;100920.47;;;21.75;48.47
63190;BME280;49286;44.460;26.114;2023-05-01T11:20:06;100928.16;;;22.29;45.97
63190;BME280;49286;44.460;26.114;2023-05-01T11:22:32;100860.91;;;21.49;47.21
63190;BME280;49286;44.460;26.114;2023-05-01T11:24:58;100958.81;;;22.21;46.52
63190;BME280;49286;44.460;26.114;2023-05-01T11:27:25;100925.03;;;22.83;46.09
63190;BME280;49286;44.460;26.114;2023-05-01T11:29:52;100861.91;;;20.98;46.81
63190;BME280;49286;44.460;26.114;2023-05-01T11:32:23;100874.13;;;22.43;46.22
63190;BME280;49286;44.460;26.114;2023-05-01T11:34:49;100955.34;;;22.17;44.30
63190;BME280;49286;44.460;26.114;2023-05-01T11:37:15;100846.63;;;21.96;44.97
63190;BME280;49286;44.460;26.114;2023-05-01T11:39:50;100937.22;;;22.47;43.94
63190;BME280;49286;44.460;26.114;2023-05-01T11:42:19;100858.56;;;22.31;43.40
63190;BME280;49286;44.460;26.114;2023-05-01T11:45:04;100849.38;;;21.23;44.12
63190;BME280;49286;44.460;26.114;2023-05-01T11:47:33;100931.00;;;21.56;44.78
63190;BME280;49286;44.460;26.114;2023-05-01T11:49:59;100929.72;;;21.42;45.13
63190;BME280;49286;44.460;26.114;2023-05-01T11:52:27;100947.66;;;21.37;46.24
63190;BME280;49286;44.460;26.114;2023-05-01T11:54:53;100834.50;;;20.93;46.22
63190;BME280;49286;44.460;26.114;2023-05-01T11:57:18;100903.47;;;22.23;46.75
63190;BME280;49286;44.460;26.114;2023-05-01T11:59:47;100893.47;;;22.28;45.66
63190;BME280;49286;44.460;26.114;2023-05-01T12:02:19;100805.50;;;20.58;47.10
63190;BME280;49286;44.460;26.114;2023-05-01T12:04:45;100891.75;;;21.33;45.75
63190;BME280;49286;44.460;26.114;2023-05-01T12:07:21;100825.59;;;20.42;47.64
63190;BME280;49286;44.460;26.114;2023-05-01T12:09:48;100836.88;;;20.23;46.88
63190;BME280;49286;44.460;26.114;2023-05-01T12:12:15;100859.31;;;20.43;46.36
63190;BME280;49286;44.460;26.114;2023-05-01T12:14:41;100814.53;;;20.28;45.19
63190;BME280;49286;44.460;26.114;2023-05-01T12:17:07;100814.88;;;20.43;45.20
63190;BME280;49286;44.460;26.114;2023-05-01T12:19:33;100914.09;;;21.55;46.07
63190;BME280;49286;44.460;26.114;2023-05-01T12:22:06;100921.84;;;21.38;44.81
63190;BME280;49286;44.460;26.114;2023-05-01T12:24:32;100813.72;;;20.26;45.32
63190;BME280;49286;44.460;26.114;2023-05-01T12:27:00;100914.84;;;21.10;45.87
63190;BME280;49286;44.460;26.114;2023-05-01T12:29:47;100917.97;;;21.46;46.41
63190;BME280;49286;44.460;26.114;2023-05-01T12:32:13;100832.69;;;20.41;45.58
63190;BME280;49286;44.460;26.114;2023-05-01T12:34:39;100854.06;;;20.93;46.08
63190;BME280;49286;44.460;26.114;2023-05-01T12:37:06;100899.31;;;21.21;44.05
63190;BME280;49286;44.460;26.114;2023-05-01T12:39:37;100911.19;;;20.86;45.76
63190;BME280;49286;44.460;26.114;2023-05-01T12:42:02;100898.06;;;21.30;48.26
63190;BME280;49286;44.460;26.114;2023-05-01T12:44:35;100811.44;;;20.66;45.11
63190;BME280;49286;44.460;26.114;2023-05-01T12:47:05;100914.75;;;21.62;45.34
63190;BME280;49286;44.460;26.114;2023-05-01T12:49:33;100810.59;;;20.90;45.67
63190;BME280;49286;44.460;26.114;2023-05-01T12:52:02;100906.59;;;21.41;44.24
63190;BME280;49286;44.460;26.114;2023-05-01T12:54:29;100805.81;;;20.74;44.84
63190;BME280;49286;44.460;26.114;2023-05-01T12:59:35;100917.50;;;20.58;45.57
63190;BME280;49286;44.460;26.114;2023-05-01T13:04:31;100875.75;;;20.57;44.10
63190;BME280;49286;44.460;26.114;2023-05-01T13:06:57;100917.16;;;20.94;44.67
63190;BME280;49286;44.460;26.114;2023-05-01T13:09:24;100808.88;;;20.10;45.81
63190;BME280;49286;44.460;26.114;2023-05-01T13:12:02;100823.78;;;20.42;43.39